sensor_id;sensor_type;location;lat;lon;timestamp;P1;durP1;ratioP1;P2;durP2;ratioP2
52590;SDS011;38483;42.620;25.394;2022-09-27T00:06:05;7.53;;;6.77;;
52590;SDS011;38483;42.620;25.394;2022-09-27T00:08:35;9.03;;;7.07;;
52590;SDS011;38483;42.620;25.394;2022-09-27T00:11:03;9.03;;;7.50;;
52590;SDS011;38483;42.620;25.394;2022-09-27T00:13:32;9.83;;;7.33;;
52590;SDS011;38483;42.620;25.394;2022-09-27T00:16:00;10.60;;;8.03;;
52590;SDS011;38483;42.620;25.394;2022-09-27T00:18:31;13.17;;;7.37;;
52590;SDS011;38483;42.620;25.394;2022-09-27T00:21:05;9.40;;;8.13;;
52590;SDS011;38483;42.620;25.394;2022-09-27T00:23:34;10.40;;;7.90;;
52590;SDS011;38483;42.620;25.394;2022-09-27T00:26:01;9.73;;;8.00;;
52590;SDS011;38483;42.620;25.394;2022-09-27T00:28:29;9.87;;;8.40;;
52590;SDS011;38483;42.620;25.394;2022-09-27T00:30:56;10.40;;;8.77;;
52590;SDS011;38483;42.620;25.394;2022-09-27T00:33:25;10.13;;;8.50;;
52590;SDS011;38483;42.620;25.394;2022-09-27T00:35:52;12.77;;;9.83;;
52590;SDS011;38483;42.620;25.394;2022-09-27T00:38:19;11.60;;;10.07;;
52590;SDS011;38483;42.620;25.394;2022-09-27T00:40:47;11.20;;;9.37;;
52590;SDS011;38483;42.620;25.394;2022-09-27T00:43:15;13.00;;;10.00;;
52590;SDS011;38483;42.620;25.394;2022-09-27T00:45:48;14.83;;;10.60;;
52590;SDS011;38483;42.620;25.394;2022-09-27T00:48:22;12.47;;;10.50;;
52590;SDS011;38483;42.620;25.394;2022-09-27T00:50:54;10.97;;;9.20;;
52590;SDS011;38483;42.620;25.394;2022-09-27T00:53:28;11.13;;;8.80;;
52590;SDS011;38483;42.620;25.394;2022-09-27T00:56:23;9.87;;;8.87;;
52590;SDS011;38483;42.620;25.394;2022-09-27T00:59:08;14.97;;;10.10;;
52590;SDS011;38483;42.620;25.394;2022-09-27T01:01:42;12.70;;;9.97;;
52590;SDS011;38483;42.620;25.394;2022-09-27T01:04:11;12.50;;;9.40;;
52590;SDS011;38483;42.620;25.394;2022-09-27T01:06:40;10.93;;;9.53;;
52590;SDS011;38483;42.620;25.394;2022-09-27T01:09:08;10.43;;;9.13;;
52590;SDS011;38483;42.620;25.394;2022-09-27T01:11:38;12.00;;;9.87;;
52590;SDS011;38483;42.620;25.394;2022-09-27T01:36:54;11.80;;;9.67;;
52590;SDS011;38483;42.620;25.394;2022-09-27T01:42:24;11.93;;;9.23;;
52590;SDS011;38483;42.620;25.394;2022-09-27T01:47:41;10.43;;;9.27;;
52590;SDS011;38483;42.620;25.394;2022-09-27T01:50:34;10.23;;;8.67;;
52590;SDS011;38483;42.620;25.394;2022-09-27T01:56:23;13.33;;;9.83;;
52590;SDS011;38483;42.620;25.394;2022-09-27T01:59:10;13.00;;;9.50;;
52590;SDS011;38483;42.620;25.394;2022-09-27T02:01:47;10.57;;;9.30;;
52590;SDS011;38483;42.620;25.394;2022-09-27T02:04:23;10.57;;;8.67;;
52590;SDS011;38483;42.620;25.394;2022-09-27T02:06:58;13.07;;;9.50;;
52590;SDS011;38483;42.620;25.394;2022-09-27T02:09:41;10.93;;;9.70;;
52590;SDS011;38483;42.620;25.394;2022-09-27T02:12:20;11.67;;;8.87;;
52590;SDS011;38483;42.620;25.394;2022-09-27T02:15:00;12.83;;;9.87;;
52590;SDS011;38483;42.620;25.394;2022-09-27T02:20:39;9.70;;;8.70;;
52590;SDS011;38483;42.620;25.394;2022-09-27T02:23:15;10.13;;;8.27;;
52590;SDS011;38483;42.620;25.394;2022-09-27T02:25:53;12.03;;;9.90;;
52590;SDS011;38483;42.620;25.394;2022-09-27T02:28:37;11.83;;;9.73;;
52590;SDS011;38483;42.620;25.394;2022-09-27T02:31:11;11.53;;;9.67;;
52590;SDS011;38483;42.620;25.394;2022-09-27T02:36:12;11.80;;;9.27;;
52590;SDS011;38483;42.620;25.394;2022-09-27T02:38:40;10.80;;;9.63;;
52590;SDS011;38483;42.620;25.394;2022-09-27T02:41:12;13.10;;;10.73;;
52590;SDS011;38483;42.620;25.394;2022-09-27T02:43:40;11.13;;;10.00;;
52590;SDS011;38483;42.620;25.394;2022-09-27T02:55:10;12.23;;;10.17;;
52590;SDS011;38483;42.620;25.394;2022-09-27T03:01:17;11.60;;;10.00;;
52590;SDS011;38483;42.620;25.394;2022-09-27T03:04:04;12.53;;;10.63;;
52590;SDS011;38483;42.620;25.394;2022-09-27T03:06:38;12.13;;;10.17;;
52590;SDS011;38483;42.620;25.394;2022-09-27T03:09:18;13.07;;;9.73;;
52590;SDS011;38483;42.620;25.394;2022-09-27T03:11:46;12.03;;;10.57;;
52590;SDS011;38483;42.620;25.394;2022-09-27T03:14:15;14.50;;;10.27;;
52590;SDS011;38483;42.620;25.394;2022-09-27T03:16:54;13.57;;;10.70;;
52590;SDS011;38483;42.620;25.394;2022-09-27T03:19:50;12.80;;;11.00;;
52590;SDS011;38483;42.620;25.394;2022-09-27T03:22:33;11.57;;;9.93;;
52590;SDS011;38483;42.620;25.394;2022-09-27T03:25:01;11.17;;;10.00;;
52590;SDS011;38483;42.620;25.394;2022-09-27T03:27:29;12.63;;;11.33;;
52590;SDS011;38483;42.620;25.394;2022-09-27T03:29:56;16.50;;;13.33;;
52590;SDS011;38483;42.620;25.394;2022-09-27T03:32:24;14.60;;;11.47;;
52590;SDS011;38483;42.620;25.394;2022-09-27T03:35:17;14.23;;;10.57;;
52590;SDS011;38483;42.620;25.394;2022-09-27T03:37:44;16.97;;;12.43;;
52590;SDS011;38483;42.620;25.394;2022-09-27T03:40:12;12.60;;;11.30;;
52590;SDS011;38483;42.620;25.394;2022-09-27T03:42:39;13.47;;;11.53;;
52590;SDS011;38483;42.620;25.394;2022-09-27T03:45:11;12.60;;;10.90;;
52590;SDS011;38483;42.620;25.394;2022-09-27T03:47:39;14.73;;;12.10;;
52590;SDS011;38483;42.620;25.394;2022-09-27T03:50:07;17.00;;;12.87;;
52590;SDS011;38483;42.620;25.394;2022-09-27T03:52:35;14.60;;;12.93;;
52590;SDS011;38483;42.620;25.394;2022-09-27T03:55:02;14.33;;;12.83;;
52590;SDS011;38483;42.620;25.394;2022-09-27T03:57:30;14.13;;;12.53;;
52590;SDS011;38483;42.620;25.394;2022-09-27T03:59:57;15.50;;;12.97;;
52590;SDS011;38483;42.620;25.394;2022-09-27T04:02:42;14.03;;;12.30;;
52590;SDS011;38483;42.620;25.394;2022-09-27T04:05:22;14.27;;;12.77;;
52590;SDS011;38483;42.620;25.394;2022-09-27T04:08:07;14.97;;;12.87;;
52590;SDS011;38483;42.620;25.394;2022-09-27T04:10:36;13.50;;;11.80;;
52590;SDS011;38483;42.620;25.394;2022-09-27T04:13:04;16.70;;;13.70;;
52590;SDS011;38483;42.620;25.394;2022-09-27T04:15:37;14.90;;;13.07;;
52590;SDS011;38483;42.620;25.394;2022-09-27T04:18:37;12.67;;;11.37;;
52590;SDS011;38483;42.620;25.394;2022-09-27T04:21:24;15.00;;;12.23;;
52590;SDS011;38483;42.620;25.394;2022-09-27T04:23:52;14.57;;;12.63;;
52590;SDS011;38483;42.620;25.394;2022-09-27T04:26:21;15.37;;;12.60;;
52590;SDS011;38483;42.620;25.394;2022-09-27T04:29:08;15.77;;;12.20;;
52590;SDS011;38483;42.620;25.394;2022-09-27T04:31:39;15.30;;;12.97;;
52590;SDS011;38483;42.620;25.394;2022-09-27T04:34:22;13.13;;;11.67;;
52590;SDS011;38483;42.620;25.394;2022-09-27T04:37:18;13.17;;;11.77;;
52590;SDS011;38483;42.620;25.394;2022-09-27T04:39:47;17.77;;;12.57;;
52590;SDS011;38483;42.620;25.394;2022-09-27T04:42:15;17.97;;;13.77;;
52590;SDS011;38483;42.620;25.394;2022-09-27T04:44:43;17.17;;;14.07;;
52590;SDS011;38483;42.620;25.394;2022-09-27T04:47:11;18.60;;;16.17;;
52590;SDS011;38483;42.620;25.394;2022-09-27T04:49:41;18.67;;;15.53;;
52590;SDS011;38483;42.620;25.394;2022-09-27T04:52:08;19.37;;;14.20;;
52590;SDS011;38483;42.620;25.394;2022-09-27T04:54:36;20.60;;;14.77;;
52590;SDS011;38483;42.620;25.394;2022-09-27T04:57:09;18.57;;;14.47;;
52590;SDS011;38483;42.620;25.394;2022-09-27T04:59:39;16.13;;;14.27;;
52590;SDS011;38483;42.620;25.394;2022-09-27T05:02:08;19.90;;;15.60;;
52590;SDS011;38483;42.620;25.394;2022-09-27T05:04:56;15.60;;;13.90;;
52590;SDS011;38483;42.620;25.394;2022-09-27T05:07:29;16.40;;;14.70;;
52590;SDS011;38483;42.620;25.394;2022-09-27T05:10:02;18.23;;;14.80;;
52590;SDS011;38483;42.620;25.394;2022-09-27T05:12:30;17.37;;;14.90;;
52590;SDS011;38483;42.620;25.394;2022-09-27T05:15:00;17.30;;;14.97;;
52590;SDS011;38483;42.620;25.394;2022-09-27T05:17:30;18.20;;;15.40;;
52590;SDS011;38483;42.620;25.394;2022-09-27T05:20:17;15.43;;;13.83;;
52590;SDS011;38483;42.620;25.394;2022-09-27T05:22:52;17.43;;;13.27;;
52590;SDS011;38483;42.620;25.394;2022-09-27T05:25:21;15.43;;;12.50;;
52590;SDS011;38483;42.620;25.394;2022-09-27T05:27:51;16.23;;;12.67;;
52590;SDS011;38483;42.620;25.394;2022-09-27T05:30:18;13.77;;;11.60;;
52590;SDS011;38483;42.620;25.394;2022-09-27T05:32:49;16.33;;;12.47;;
52590;SDS011;38483;42.620;25.394;2022-09-27T05:35:25;13.93;;;11.70;;
52590;SDS011;38483;42.620;25.394;2022-09-27T05:37:58;14.80;;;12.50;;
52590;SDS011;38483;42.620;25.394;2022-09-27T05:40:29;15.77;;;12.20;;
52590;SDS011;38483;42.620;25.394;2022-09-27T05:43:08;13.20;;;11.70;;
52590;SDS011;38483;42.620;25.394;2022-09-27T05:45:35;12.13;;;10.63;;
52590;SDS011;38483;42.620;25.394;2022-09-27T05:48:04;12.00;;;10.77;;
52590;SDS011;38483;42.620;25.394;2022-09-27T05:50:37;13.73;;;12.13;;
52590;SDS011;38483;42.620;25.394;2022-09-27T05:53:04;13.80;;;11.93;;
52590;SDS011;38483;42.620;25.394;2022-09-27T05:55:32;11.90;;;10.03;;
52590;SDS011;38483;42.620;25.394;2022-09-27T05:58:03;18.80;;;12.53;;
52590;SDS011;38483;42.620;25.394;2022-09-27T06:00:43;12.63;;;10.00;;
52590;SDS011;38483;42.620;25.394;2022-09-27T06:03:33;11.27;;;10.07;;
52590;SDS011;38483;42.620;25.394;2022-09-27T06:06:20;12.70;;;10.90;;
52590;SDS011;38483;42.620;25.394;2022-09-27T06:08:54;12.83;;;10.23;;
52590;SDS011;38483;42.620;25.394;2022-09-27T06:11:23;15.70;;;11.77;;
52590;SDS011;38483;42.620;25.394;2022-09-27T06:13:54;14.73;;;9.87;;
52590;SDS011;38483;42.620;25.394;2022-09-27T06:16:24;14.33;;;10.23;;
52590;SDS011;38483;42.620;25.394;2022-09-27T06:18:52;13.27;;;10.93;;
52590;SDS011;38483;42.620;25.394;2022-09-27T06:21:23;12.37;;;10.23;;
52590;SDS011;38483;42.620;25.394;2022-09-27T06:23:54;15.50;;;10.93;;
52590;SDS011;38483;42.620;25.394;2022-09-27T06:26:31;15.77;;;10.40;;
52590;SDS011;38483;42.620;25.394;2022-09-27T06:29:13;14.00;;;10.57;;
52590;SDS011;38483;42.620;25.394;2022-09-27T06:31:56;16.70;;;11.10;;
52590;SDS011;38483;42.620;25.394;2022-09-27T06:34:44;17.27;;;11.90;;
52590;SDS011;38483;42.620;25.394;2022-09-27T06:37:12;22.23;;;15.13;;
52590;SDS011;38483;42.620;25.394;2022-09-27T06:39:39;14.30;;;10.43;;
52590;SDS011;38483;42.620;25.394;2022-09-27T06:42:32;14.87;;;10.20;;
52590;SDS011;38483;42.620;25.394;2022-09-27T06:45:14;15.40;;;10.83;;
52590;SDS011;38483;42.620;25.394;2022-09-27T06:48:02;14.23;;;10.33;;
52590;SDS011;38483;42.620;25.394;2022-09-27T06:50:50;16.03;;;11.03;;
52590;SDS011;38483;42.620;25.394;2022-09-27T06:53:19;11.90;;;10.00;;
52590;SDS011;38483;42.620;25.394;2022-09-27T06:55:47;13.57;;;11.00;;
52590;SDS011;38483;42.620;25.394;2022-09-27T06:58:14;13.50;;;10.87;;
52590;SDS011;38483;42.620;25.394;2022-09-27T07:01:18;23.13;;;13.77;;
52590;SDS011;38483;42.620;25.394;2022-09-27T07:04:04;33.77;;;15.40;;
52590;SDS011;38483;42.620;25.394;2022-09-27T07:06:47;38.53;;;14.70;;
52590;SDS011;38483;42.620;25.394;2022-09-27T07:09:20;21.53;;;11.93;;
52590;SDS011;38483;42.620;25.394;2022-09-27T07:11:47;17.57;;;12.70;;
52590;SDS011;38483;42.620;25.394;2022-09-27T07:14:15;26.20;;;13.30;;
52590;SDS011;38483;42.620;25.394;2022-09-27T07:16:43;23.37;;;12.70;;
52590;SDS011;38483;42.620;25.394;2022-09-27T07:19:18;19.50;;;12.80;;
52590;SDS011;38483;42.620;25.394;2022-09-27T07:21:52;16.80;;;11.50;;
52590;SDS011;38483;42.620;25.394;2022-09-27T07:24:19;17.13;;;12.23;;
52590;SDS011;38483;42.620;25.394;2022-09-27T07:26:47;18.13;;;13.50;;
52590;SDS011;38483;42.620;25.394;2022-09-27T07:29:17;27.50;;;12.50;;
52590;SDS011;38483;42.620;25.394;2022-09-27T07:31:46;17.87;;;10.93;;
52590;SDS011;38483;42.620;25.394;2022-09-27T07:34:14;12.00;;;10.77;;
52590;SDS011;38483;42.620;25.394;2022-09-27T07:36:44;27.20;;;12.63;;
52590;SDS011;38483;42.620;25.394;2022-09-27T07:39:12;21.30;;;12.67;;
52590;SDS011;38483;42.620;25.394;2022-09-27T07:41:41;17.37;;;10.87;;
52590;SDS011;38483;42.620;25.394;2022-09-27T07:44:11;12.47;;;10.90;;
52590;SDS011;38483;42.620;25.394;2022-09-27T07:46:52;12.20;;;10.53;;
52590;SDS011;38483;42.620;25.394;2022-09-27T07:49:27;20.13;;;11.67;;
52590;SDS011;38483;42.620;25.394;2022-09-27T07:52:13;17.33;;;12.07;;
52590;SDS011;38483;42.620;25.394;2022-09-27T07:55:09;26.00;;;12.87;;
52590;SDS011;38483;42.620;25.394;2022-09-27T07:57:51;17.53;;;11.50;;
52590;SDS011;38483;42.620;25.394;2022-09-27T08:00:21;19.30;;;13.13;;
52590;SDS011;38483;42.620;25.394;2022-09-27T08:02:48;16.60;;;12.30;;
52590;SDS011;38483;42.620;25.394;2022-09-27T08:05:15;14.50;;;11.53;;
52590;SDS011;38483;42.620;25.394;2022-09-27T08:07:44;15.37;;;11.53;;
52590;SDS011;38483;42.620;25.394;2022-09-27T08:10:11;16.83;;;11.10;;
52590;SDS011;38483;42.620;25.394;2022-09-27T08:12:38;15.00;;;11.00;;
52590;SDS011;38483;42.620;25.394;2022-09-27T08:15:06;15.60;;;11.33;;
52590;SDS011;38483;42.620;25.394;2022-09-27T08:17:33;14.17;;;12.17;;
52590;SDS011;38483;42.620;25.394;2022-09-27T08:20:07;16.53;;;11.93;;
52590;SDS011;38483;42.620;25.394;2022-09-27T08:22:55;13.57;;;10.50;;
52590;SDS011;38483;42.620;25.394;2022-09-27T08:25:33;12.30;;;9.83;;
52590;SDS011;38483;42.620;25.394;2022-09-27T08:28:26;13.40;;;9.83;;
52590;SDS011;38483;42.620;25.394;2022-09-27T08:30:59;10.23;;;9.07;;
52590;SDS011;38483;42.620;25.394;2022-09-27T08:33:26;11.50;;;9.87;;
52590;SDS011;38483;42.620;25.394;2022-09-27T08:35:59;13.50;;;10.30;;
52590;SDS011;38483;42.620;25.394;2022-09-27T08:38:27;16.73;;;10.27;;
52590;SDS011;38483;42.620;25.394;2022-09-27T08:40:56;14.57;;;9.10;;
52590;SDS011;38483;42.620;25.394;2022-09-27T08:43:38;11.47;;;9.23;;
52590;SDS011;38483;42.620;25.394;2022-09-27T08:49:16;11.67;;;9.70;;
52590;SDS011;38483;42.620;25.394;2022-09-27T08:51:52;14.93;;;10.07;;
52590;SDS011;38483;42.620;25.394;2022-09-27T08:54:23;12.77;;;8.90;;
52590;SDS011;38483;42.620;25.394;2022-09-27T08:56:56;11.53;;;8.90;;
52590;SDS011;38483;42.620;25.394;2022-09-27T08:59:37;10.37;;;8.60;;
52590;SDS011;38483;42.620;25.394;2022-09-27T09:02:20;15.03;;;11.37;;
52590;SDS011;38483;42.620;25.394;2022-09-27T09:08:15;14.07;;;9.83;;
52590;SDS011;38483;42.620;25.394;2022-09-27T09:20:27;10.67;;;9.10;;
52590;SDS011;38483;42.620;25.394;2022-09-27T09:29:26;14.67;;;9.43;;
52590;SDS011;38483;42.620;25.394;2022-09-27T09:34:51;13.97;;;10.40;;
52590;SDS011;38483;42.620;25.394;2022-09-27T09:37:46;10.40;;;9.17;;
52590;SDS011;38483;42.620;25.394;2022-09-27T09:45:58;12.97;;;8.60;;
52590;SDS011;38483;42.620;25.394;2022-09-27T09:48:42;8.30;;;7.50;;
52590;SDS011;38483;42.620;25.394;2022-09-27T09:51:17;7.63;;;6.73;;
52590;SDS011;38483;42.620;25.394;2022-09-27T09:53:53;6.50;;;5.80;;
52590;SDS011;38483;42.620;25.394;2022-09-27T09:56:44;8.63;;;6.67;;
52590;SDS011;38483;42.620;25.394;2022-09-27T09:59:17;7.90;;;7.00;;
52590;SDS011;38483;42.620;25.394;2022-09-27T10:01:52;7.67;;;5.90;;
52590;SDS011;38483;42.620;25.394;2022-09-27T10:04:24;8.93;;;6.53;;
52590;SDS011;38483;42.620;25.394;2022-09-27T10:06:56;11.43;;;7.73;;
52590;SDS011;38483;42.620;25.394;2022-09-27T10:09:30;8.60;;;6.50;;
52590;SDS011;38483;42.620;25.394;2022-09-27T10:12:31;8.00;;;7.17;;
52590;SDS011;38483;42.620;25.394;2022-09-27T10:15:00;7.47;;;6.77;;
52590;SDS011;38483;42.620;25.394;2022-09-27T10:17:34;9.30;;;7.57;;
52590;SDS011;38483;42.620;25.394;2022-09-27T10:20:07;8.40;;;7.60;;
52590;SDS011;38483;42.620;25.394;2022-09-27T10:22:52;7.50;;;6.77;;
52590;SDS011;38483;42.620;25.394;2022-09-27T10:25:57;7.83;;;6.50;;
52590;SDS011;38483;42.620;25.394;2022-09-27T10:28:36;6.37;;;5.77;;
52590;SDS011;38483;42.620;25.394;2022-09-27T10:31:10;8.47;;;7.00;;
52590;SDS011;38483;42.620;25.394;2022-09-27T10:33:53;8.93;;;6.67;;
52590;SDS011;38483;42.620;25.394;2022-09-27T10:36:26;7.77;;;5.87;;
52590;SDS011;38483;42.620;25.394;2022-09-27T10:39:04;7.50;;;5.93;;
52590;SDS011;38483;42.620;25.394;2022-09-27T10:41:44;6.43;;;5.53;;
52590;SDS011;38483;42.620;25.394;2022-09-27T10:44:27;7.87;;;6.27;;
52590;SDS011;38483;42.620;25.394;2022-09-27T10:47:07;7.07;;;5.70;;
52590;SDS011;38483;42.620;25.394;2022-09-27T10:49:42;6.07;;;5.43;;
52590;SDS011;38483;42.620;25.394;2022-09-27T10:52:29;9.60;;;5.17;;
52590;SDS011;38483;42.620;25.394;2022-09-27T10:54:56;6.53;;;4.93;;
52590;SDS011;38483;42.620;25.394;2022-09-27T10:57:29;5.30;;;4.80;;
52590;SDS011;38483;42.620;25.394;2022-09-27T11:00:05;4.60;;;4.20;;
52590;SDS011;38483;42.620;25.394;2022-09-27T11:02:50;5.07;;;4.03;;
52590;SDS011;38483;42.620;25.394;2022-09-27T11:07:57;6.37;;;3.97;;
52590;SDS011;38483;42.620;25.394;2022-09-27T11:10:59;3.83;;;3.50;;
52590;SDS011;38483;42.620;25.394;2022-09-27T11:13:35;5.17;;;4.03;;
52590;SDS011;38483;42.620;25.394;2022-09-27T11:27:06;4.70;;;4.00;;
52590;SDS011;38483;42.620;25.394;2022-09-27T11:33:04;5.87;;;4.50;;
52590;SDS011;38483;42.620;25.394;2022-09-27T11:41:36;4.60;;;4.17;;
52590;SDS011;38483;42.620;25.394;2022-09-27T11:44:29;5.30;;;4.50;;
52590;SDS011;38483;42.620;25.394;2022-09-27T11:53:25;5.23;;;4.33;;
52590;SDS011;38483;42.620;25.394;2022-09-27T11:58:48;5.13;;;4.63;;
52590;SDS011;38483;42.620;25.394;2022-09-27T12:07:30;5.20;;;4.70;;
52590;SDS011;38483;42.620;25.394;2022-09-27T12:10:16;5.27;;;4.80;;
52590;SDS011;38483;42.620;25.394;2022-09-27T12:12:45;5.67;;;5.00;;
52590;SDS011;38483;42.620;25.394;2022-09-27T12:15:18;7.70;;;4.63;;
52590;SDS011;38483;42.620;25.394;2022-09-27T12:17:49;5.27;;;4.53;;
52590;SDS011;38483;42.620;25.394;2022-09-27T12:20:22;5.40;;;4.90;;
52590;SDS011;38483;42.620;25.394;2022-09-27T12:22:57;7.37;;;5.00;;
52590;SDS011;38483;42.620;25.394;2022-09-27T12:25:55;6.33;;;4.77;;
52590;SDS011;38483;42.620;25.394;2022-09-27T12:31:13;5.80;;;4.43;;
52590;SDS011;38483;42.620;25.394;2022-09-27T12:34:11;6.70;;;4.83;;
52590;SDS011;38483;42.620;25.394;2022-09-27T12:39:26;5.20;;;4.70;;
52590;SDS011;38483;42.620;25.394;2022-09-27T12:42:29;6.37;;;4.53;;
52590;SDS011;38483;42.620;25.394;2022-09-27T12:45:26;6.60;;;5.30;;
52590;SDS011;38483;42.620;25.394;2022-09-27T12:50:35;4.87;;;4.20;;
52590;SDS011;38483;42.620;25.394;2022-09-27T12:53:19;5.57;;;4.17;;
52590;SDS011;38483;42.620;25.394;2022-09-27T13:01:49;6.50;;;4.00;;
52590;SDS011;38483;42.620;25.394;2022-09-27T13:13:26;5.90;;;4.37;;
52590;SDS011;38483;42.620;25.394;2022-09-27T13:16:03;4.57;;;4.10;;
52590;SDS011;38483;42.620;25.394;2022-09-27T13:21:08;5.47;;;4.17;;
52590;SDS011;38483;42.620;25.394;2022-09-27T13:29:02;3.83;;;3.53;;
52590;SDS011;38483;42.620;25.394;2022-09-27T13:45:57;6.47;;;4.47;;
52590;SDS011;38483;42.620;25.394;2022-09-27T13:48:27;7.10;;;6.40;;
52590;SDS011;38483;42.620;25.394;2022-09-27T13:51:56;6.47;;;5.83;;
52590;SDS011;38483;42.620;25.394;2022-09-27T13:56:45;5.50;;;5.00;;
52590;SDS011;38483;42.620;25.394;2022-09-27T14:01:39;6.47;;;5.83;;
52590;SDS011;38483;42.620;25.394;2022-09-27T14:04:16;9.20;;;5.87;;
52590;SDS011;38483;42.620;25.394;2022-09-27T14:06:47;6.60;;;5.80;;
52590;SDS011;38483;42.620;25.394;2022-09-27T14:09:25;7.77;;;5.40;;
52590;SDS011;38483;42.620;25.394;2022-09-27T14:12:19;6.17;;;4.23;;
52590;SDS011;38483;42.620;25.394;2022-09-27T14:14:54;5.50;;;4.60;;
52590;SDS011;38483;42.620;25.394;2022-09-27T14:17:22;5.20;;;4.27;;
52590;SDS011;38483;42.620;25.394;2022-09-27T14:19:51;4.60;;;3.83;;
52590;SDS011;38483;42.620;25.394;2022-09-27T14:22:21;5.03;;;4.17;;
52590;SDS011;38483;42.620;25.394;2022-09-27T14:24:55;5.20;;;4.53;;
52590;SDS011;38483;42.620;25.394;2022-09-27T14:27:37;5.17;;;4.57;;
52590;SDS011;38483;42.620;25.394;2022-09-27T14:30:28;7.57;;;5.20;;
52590;SDS011;38483;42.620;25.394;2022-09-27T14:33:33;5.30;;;4.80;;
52590;SDS011;38483;42.620;25.394;2022-09-27T14:36:22;5.57;;;4.93;;
52590;SDS011;38483;42.620;25.394;2022-09-27T14:39:15;7.27;;;5.03;;
52590;SDS011;38483;42.620;25.394;2022-09-27T14:42:16;6.83;;;5.20;;
52590;SDS011;38483;42.620;25.394;2022-09-27T14:44:47;13.60;;;5.00;;
52590;SDS011;38483;42.620;25.394;2022-09-27T14:49:46;25.47;;;7.87;;
52590;SDS011;38483;42.620;25.394;2022-09-27T14:52:31;13.43;;;6.70;;
52590;SDS011;38483;42.620;25.394;2022-09-27T14:55:04;19.60;;;8.37;;
52590;SDS011;38483;42.620;25.394;2022-09-27T14:57:33;11.80;;;9.10;;
52590;SDS011;38483;42.620;25.394;2022-09-27T15:00:36;12.33;;;8.33;;
52590;SDS011;38483;42.620;25.394;2022-09-27T15:02:58;9.63;;;7.70;;
52590;SDS011;38483;42.620;25.394;2022-09-27T15:05:30;10.40;;;7.17;;
52590;SDS011;38483;42.620;25.394;2022-09-27T15:08:00;8.90;;;6.97;;
52590;SDS011;38483;42.620;25.394;2022-09-27T15:10:31;9.30;;;7.70;;
52590;SDS011;38483;42.620;25.394;2022-09-27T15:13:00;12.10;;;7.97;;
52590;SDS011;38483;42.620;25.394;2022-09-27T15:15:34;10.13;;;7.50;;
52590;SDS011;38483;42.620;25.394;2022-09-27T15:21:33;10.27;;;8.60;;
52590;SDS011;38483;42.620;25.394;2022-09-27T15:24:02;11.33;;;8.70;;
52590;SDS011;38483;42.620;25.394;2022-09-27T15:26:33;10.63;;;9.23;;
52590;SDS011;38483;42.620;25.394;2022-09-27T15:29:04;9.37;;;8.37;;
52590;SDS011;38483;42.620;25.394;2022-09-27T15:31:34;10.73;;;8.60;;
52590;SDS011;38483;42.620;25.394;2022-09-27T15:34:02;9.97;;;8.43;;
52590;SDS011;38483;42.620;25.394;2022-09-27T15:39:17;10.73;;;9.23;;
52590;SDS011;38483;42.620;25.394;2022-09-27T15:42:03;11.73;;;9.13;;
52590;SDS011;38483;42.620;25.394;2022-09-27T15:52:45;12.30;;;11.00;;
52590;SDS011;38483;42.620;25.394;2022-09-27T15:55:16;14.10;;;11.10;;
52590;SDS011;38483;42.620;25.394;2022-09-27T15:57:46;15.13;;;11.23;;
52590;SDS011;38483;42.620;25.394;2022-09-27T16:00:16;15.20;;;11.30;;
52590;SDS011;38483;42.620;25.394;2022-09-27T16:02:46;17.87;;;11.47;;
52590;SDS011;38483;42.620;25.394;2022-09-27T16:05:13;12.80;;;10.07;;
52590;SDS011;38483;42.620;25.394;2022-09-27T16:07:40;11.53;;;9.87;;
52590;SDS011;38483;42.620;25.394;2022-09-27T16:10:10;12.03;;;9.90;;
52590;SDS011;38483;42.620;25.394;2022-09-27T16:12:40;14.83;;;11.80;;
52590;SDS011;38483;42.620;25.394;2022-09-27T16:15:09;12.10;;;8.50;;
52590;SDS011;38483;42.620;25.394;2022-09-27T16:17:37;11.90;;;9.50;;
52590;SDS011;38483;42.620;25.394;2022-09-27T16:20:04;12.23;;;9.67;;
52590;SDS011;38483;42.620;25.394;2022-09-27T16:22:32;12.93;;;9.73;;
52590;SDS011;38483;42.620;25.394;2022-09-27T16:24:58;9.93;;;8.70;;
52590;SDS011;38483;42.620;25.394;2022-09-27T16:27:28;15.03;;;10.13;;
52590;SDS011;38483;42.620;25.394;2022-09-27T16:29:55;11.83;;;9.60;;
52590;SDS011;38483;42.620;25.394;2022-09-27T16:32:23;12.57;;;9.07;;
52590;SDS011;38483;42.620;25.394;2022-09-27T16:34:51;11.90;;;9.67;;
52590;SDS011;38483;42.620;25.394;2022-09-27T16:37:18;14.53;;;10.20;;
52590;SDS011;38483;42.620;25.394;2022-09-27T16:39:45;15.40;;;10.93;;
52590;SDS011;38483;42.620;25.394;2022-09-27T16:42:12;11.23;;;9.60;;
52590;SDS011;38483;42.620;25.394;2022-09-27T16:44:40;13.93;;;10.30;;
52590;SDS011;38483;42.620;25.394;2022-09-27T16:47:07;13.47;;;10.40;;
52590;SDS011;38483;42.620;25.394;2022-09-27T16:49:34;14.80;;;10.33;;
52590;SDS011;38483;42.620;25.394;2022-09-27T16:52:19;14.60;;;10.93;;
52590;SDS011;38483;42.620;25.394;2022-09-27T16:54:46;15.83;;;11.37;;
52590;SDS011;38483;42.620;25.394;2022-09-27T16:57:13;16.90;;;11.67;;
52590;SDS011;38483;42.620;25.394;2022-09-27T16:59:40;14.13;;;12.63;;
52590;SDS011;38483;42.620;25.394;2022-09-27T17:02:08;13.10;;;10.83;;
52590;SDS011;38483;42.620;25.394;2022-09-27T17:04:35;14.00;;;12.20;;
52590;SDS011;38483;42.620;25.394;2022-09-27T17:07:02;17.80;;;13.63;;
52590;SDS011;38483;42.620;25.394;2022-09-27T17:09:29;14.37;;;12.30;;
52590;SDS011;38483;42.620;25.394;2022-09-27T17:11:55;13.27;;;11.43;;
52590;SDS011;38483;42.620;25.394;2022-09-27T17:14:22;14.60;;;11.80;;
52590;SDS011;38483;42.620;25.394;2022-09-27T17:16:50;12.37;;;10.77;;
52590;SDS011;38483;42.620;25.394;2022-09-27T17:19:17;12.63;;;11.27;;
52590;SDS011;38483;42.620;25.394;2022-09-27T17:21:44;12.23;;;10.77;;
52590;SDS011;38483;42.620;25.394;2022-09-27T17:24:11;14.00;;;11.47;;
52590;SDS011;38483;42.620;25.394;2022-09-27T17:26:39;15.50;;;12.40;;
52590;SDS011;38483;42.620;25.394;2022-09-27T17:29:06;16.07;;;13.13;;
52590;SDS011;38483;42.620;25.394;2022-09-27T17:31:36;28.80;;;20.10;;
52590;SDS011;38483;42.620;25.394;2022-09-27T17:34:06;40.67;;;27.63;;
52590;SDS011;38483;42.620;25.394;2022-09-27T17:36:41;35.17;;;25.50;;
52590;SDS011;38483;42.620;25.394;2022-09-27T17:39:14;35.03;;;27.47;;
52590;SDS011;38483;42.620;25.394;2022-09-27T17:41:42;36.23;;;27.47;;
52590;SDS011;38483;42.620;25.394;2022-09-27T17:44:10;38.30;;;27.67;;
52590;SDS011;38483;42.620;25.394;2022-09-27T17:46:39;30.17;;;25.33;;
52590;SDS011;38483;42.620;25.394;2022-09-27T17:49:08;34.67;;;24.80;;
52590;SDS011;38483;42.620;25.394;2022-09-27T17:51:54;28.40;;;21.40;;
52590;SDS011;38483;42.620;25.394;2022-09-27T17:54:22;31.83;;;22.00;;
52590;SDS011;38483;42.620;25.394;2022-09-27T17:56:51;24.40;;;20.37;;
52590;SDS011;38483;42.620;25.394;2022-09-27T17:59:18;25.37;;;21.13;;
52590;SDS011;38483;42.620;25.394;2022-09-27T18:01:45;28.63;;;22.30;;
52590;SDS011;38483;42.620;25.394;2022-09-27T18:04:14;28.17;;;22.17;;
52590;SDS011;38483;42.620;25.394;2022-09-27T18:06:43;27.93;;;20.93;;
52590;SDS011;38483;42.620;25.394;2022-09-27T18:09:13;23.67;;;19.07;;
52590;SDS011;38483;42.620;25.394;2022-09-27T18:11:41;27.77;;;21.30;;